sensor_id;sensor_type;location;lat;lon;timestamp;temperature;humidity
67379;DHT22;54262;44.642;-0.974;2023-05-29T00:00:39;18.90;99.90
67379;DHT22;54262;44.642;-0.974;2023-05-29T00:03:05;18.90;99.90
67379;DHT22;54262;44.642;-0.974;2023-05-29T00:05:30;18.90;99.90
67379;DHT22;54262;44.642;-0.974;2023-05-29T00:07:56;18.70;99.90
67379;DHT22;54262;44.642;-0.974;2023-05-29T00:10:22;18.70;99.90
67379;DHT22;54262;44.642;-0.974;2023-05-29T00:12:47;18.60;99.90
67379;DHT22;54262;44.642;-0.974;2023-05-29T00:15:13;18.60;99.90
67379;DHT22;54262;44.642;-0.974;2023-05-29T00:17:38;18.50;99.90
67379;DHT22;54262;44.642;-0.974;2023-05-29T00:20:06;18.50;99.90
67379;DHT22;54262;44.642;-0.974;2023-05-29T00:22:35;18.40;99.90
67379;DHT22;54262;44.642;-0.974;2023-05-29T00:25:05;18.30;99.90
67379;DHT22;54262;44.642;-0.974;2023-05-29T00:27:31;18.40;99.90
67379;DHT22;54262;44.642;-0.974;2023-05-29T00:29:58;18.30;99.90
67379;DHT22;54262;44.642;-0.974;2023-05-29T00:32:27;18.10;99.90
67379;DHT22;54262;44.642;-0.974;2023-05-29T00:34:53;18.00;99.90
67379;DHT22;54262;44.642;-0.974;2023-05-29T00:37:19;17.90;99.90
67379;DHT22;54262;44.642;-0.974;2023-05-29T00:39:49;17.90;99.90
67379;DHT22;54262;44.642;-0.974;2023-05-29T00:42:17;17.80;99.90
67379;DHT22;54262;44.642;-0.974;2023-05-29T00:44:42;17.80;99.90
67379;DHT22;54262;44.642;-0.974;2023-05-29T00:47:08;18.00;99.90
67379;DHT22;54262;44.642;-0.974;2023-05-29T00:49:36;17.80;99.90
67379;DHT22;54262;44.642;-0.974;2023-05-29T00:52:03;17.70;99.90
67379;DHT22;54262;44.642;-0.974;2023-05-29T00:54:30;17.60;99.90
67379;DHT22;54262;44.642;-0.974;2023-05-29T00:56:59;17.60;99.90
67379;DHT22;54262;44.642;-0.974;2023-05-29T00:59:29;17.50;99.90
67379;DHT22;54262;44.642;-0.974;2023-05-29T01:01:55;17.40;99.90
67379;DHT22;54262;44.642;-0.974;2023-05-29T01:04:22;17.40;99.90
67379;DHT22;54262;44.642;-0.974;2023-05-29T01:06:49;17.30;99.90
67379;DHT22;54262;44.642;-0.974;2023-05-29T01:09:15;17.20;99.90
67379;DHT22;54262;44.642;-0.974;2023-05-29T01:17:15;17.10;99.90
67379;DHT22;54262;44.642;-0.974;2023-05-29T01:25:19;17.20;99.90
67379;DHT22;54262;44.642;-0.974;2023-05-29T01:27:46;17.20;99.90
67379;DHT22;54262;44.642;-0.974;2023-05-29T01:30:14;17.10;99.90
67379;DHT22;54262;44.642;-0.974;2023-05-29T01:32:43;17.10;99.90
67379;DHT22;54262;44.642;-0.974;2023-05-29T01:35:09;17.20;99.90
67379;DHT22;54262;44.642;-0.974;2023-05-29T01:37:35;17.10;99.90
67379;DHT22;54262;44.642;-0.974;2023-05-29T01:40:01;17.00;99.90
67379;DHT22;54262;44.642;-0.974;2023-05-29T01:42:29;16.90;99.90
67379;DHT22;54262;44.642;-0.974;2023-05-29T01:44:56;16.90;99.90
67379;DHT22;54262;44.642;-0.974;2023-05-29T01:47:22;16.90;99.90
67379;DHT22;54262;44.642;-0.974;2023-05-29T01:49:50;16.80;99.90
67379;DHT22;54262;44.642;-0.974;2023-05-29T01:52:17;16.70;99.90
67379;DHT22;54262;44.642;-0.974;2023-05-29T01:54:43;16.70;99.90
67379;DHT22;54262;44.642;-0.974;2023-05-29T01:57:09;16.60;99.90
67379;DHT22;54262;44.642;-0.974;2023-05-29T01:59:36;16.50;99.90
67379;DHT22;54262;44.642;-0.974;2023-05-29T02:02:07;16.50;99.90
67379;DHT22;54262;44.642;-0.974;2023-05-29T02:04:32;16.40;99.90
67379;DHT22;54262;44.642;-0.974;2023-05-29T02:06:58;16.30;99.90
67379;DHT22;54262;44.642;-0.974;2023-05-29T02:09:24;16.20;99.90
67379;DHT22;54262;44.642;-0.974;2023-05-29T02:11:50;16.20;99.90
67379;DHT22;54262;44.642;-0.974;2023-05-29T02:14:16;16.20;99.90
67379;DHT22;54262;44.642;-0.974;2023-05-29T02:16:41;16.20;99.90
67379;DHT22;54262;44.642;-0.974;2023-05-29T02:19:09;16.10;99.90
67379;DHT22;54262;44.642;-0.974;2023-05-29T02:21:38;16.00;99.90
67379;DHT22;54262;44.642;-0.974;2023-05-29T02:24:05;16.00;99.90
67379;DHT22;54262;44.642;-0.974;2023-05-29T02:26:31;16.20;99.90
67379;DHT22;54262;44.642;-0.974;2023-05-29T02:28:57;16.10;99.90
67379;DHT22;54262;44.642;-0.974;2023-05-29T02:31:23;16.10;99.90
67379;DHT22;54262;44.642;-0.974;2023-05-29T02:33:50;16.00;99.90
67379;DHT22;54262;44.642;-0.974;2023-05-29T02:36:16;16.00;99.90
67379;DHT22;54262;44.642;-0.974;2023-05-29T02:38:42;15.90;99.90
67379;DHT22;54262;44.642;-0.974;2023-05-29T02:41:08;15.90;99.90
67379;DHT22;54262;44.642;-0.974;2023-05-29T02:43:36;16.00;99.90
67379;DHT22;54262;44.642;-0.974;2023-05-29T02:46:01;15.90;99.90
67379;DHT22;54262;44.642;-0.974;2023-05-29T02:48:27;15.80;99.90
67379;DHT22;54262;44.642;-0.974;2023-05-29T02:50:54;15.90;99.90
67379;DHT22;54262;44.642;-0.974;2023-05-29T02:53:20;15.80;99.90
67379;DHT22;54262;44.642;-0.974;2023-05-29T02:55:45;15.90;99.90
67379;DHT22;54262;44.642;-0.974;2023-05-29T02:58:12;15.80;99.90
67379;DHT22;54262;44.642;-0.974;2023-05-29T03:00:38;15.90;99.90
67379;DHT22;54262;44.642;-0.974;2023-05-29T03:03:04;15.80;99.90
67379;DHT22;54262;44.642;-0.974;2023-05-29T03:05:30;15.80;99.90
67379;DHT22;54262;44.642;-0.974;2023-05-29T03:07:55;15.70;99.90
67379;DHT22;54262;44.642;-0.974;2023-05-29T03:10:21;15.70;99.90
67379;DHT22;54262;44.642;-0.974;2023-05-29T03:12:47;15.70;99.90
67379;DHT22;54262;44.642;-0.974;2023-05-29T03:15:13;15.60;99.90
67379;DHT22;54262;44.642;-0.974;2023-05-29T03:17:39;15.60;99.90
67379;DHT22;54262;44.642;-0.974;2023-05-29T03:20:06;15.70;99.90
67379;DHT22;54262;44.642;-0.974;2023-05-29T03:22:34;15.50;99.90
67379;DHT22;54262;44.642;-0.974;2023-05-29T03:24:59;15.50;99.90
67379;DHT22;54262;44.642;-0.974;2023-05-29T03:27:25;15.40;99.90
67379;DHT22;54262;44.642;-0.974;2023-05-29T03:29:51;15.30;99.90
67379;DHT22;54262;44.642;-0.974;2023-05-29T03:32:18;15.30;99.90
67379;DHT22;54262;44.642;-0.974;2023-05-29T03:34:46;15.30;99.90
67379;DHT22;54262;44.642;-0.974;2023-05-29T03:37:13;15.20;99.90
67379;DHT22;54262;44.642;-0.974;2023-05-29T03:39:39;15.20;99.90
67379;DHT22;54262;44.642;-0.974;2023-05-29T03:42:04;15.10;99.90
67379;DHT22;54262;44.642;-0.974;2023-05-29T03:44:33;15.10;99.90
67379;DHT22;54262;44.642;-0.974;2023-05-29T03:46:58;15.20;99.90
67379;DHT22;54262;44.642;-0.974;2023-05-29T03:49:24;15.10;99.90
67379;DHT22;54262;44.642;-0.974;2023-05-29T03:51:50;15.00;99.90
67379;DHT22;54262;44.642;-0.974;2023-05-29T03:54:16;15.00;99.90
67379;DHT22;54262;44.642;-0.974;2023-05-29T03:56:41;15.00;99.90
67379;DHT22;54262;44.642;-0.974;2023-05-29T03:59:07;15.00;99.90
67379;DHT22;54262;44.642;-0.974;2023-05-29T04:01:33;14.90;99.90
67379;DHT22;54262;44.642;-0.974;2023-05-29T04:03:59;14.90;99.90
67379;DHT22;54262;44.642;-0.974;2023-05-29T04:06:25;14.80;99.90
67379;DHT22;54262;44.642;-0.974;2023-05-29T04:08:51;14.80;99.90
67379;DHT22;54262;44.642;-0.974;2023-05-29T04:11:17;14.80;99.90
67379;DHT22;54262;44.642;-0.974;2023-05-29T04:13:42;14.80;99.90
67379;DHT22;54262;44.642;-0.974;2023-05-29T04:16:08;14.90;99.90
67379;DHT22;54262;44.642;-0.974;2023-05-29T04:18:34;14.80;99.90
67379;DHT22;54262;44.642;-0.974;2023-05-29T04:20:59;14.80;99.90
67379;DHT22;54262;44.642;-0.974;2023-05-29T04:23:25;14.70;99.90
67379;DHT22;54262;44.642;-0.974;2023-05-29T04:25:51;14.70;99.90
67379;DHT22;54262;44.642;-0.974;2023-05-29T04:28:18;14.70;99.90
67379;DHT22;54262;44.642;-0.974;2023-05-29T04:30:47;14.70;99.90
67379;DHT22;54262;44.642;-0.974;2023-05-29T04:33:12;14.60;99.90
67379;DHT22;54262;44.642;-0.974;2023-05-29T04:35:41;14.70;99.90
67379;DHT22;54262;44.642;-0.974;2023-05-29T04:38:10;14.80;99.90
67379;DHT22;54262;44.642;-0.974;2023-05-29T04:40:36;14.80;99.90
67379;DHT22;54262;44.642;-0.974;2023-05-29T04:43:02;14.70;99.90
67379;DHT22;54262;44.642;-0.974;2023-05-29T04:45:30;14.70;99.90
67379;DHT22;54262;44.642;-0.974;2023-05-29T04:47:56;14.70;99.90
67379;DHT22;54262;44.642;-0.974;2023-05-29T04:50:22;14.80;99.90
67379;DHT22;54262;44.642;-0.974;2023-05-29T04:52:52;14.90;99.90
67379;DHT22;54262;44.642;-0.974;2023-05-29T04:55:18;14.90;99.90
67379;DHT22;54262;44.642;-0.974;2023-05-29T04:57:44;14.90;99.90
67379;DHT22;54262;44.642;-0.974;2023-05-29T05:00:10;15.00;99.90
67379;DHT22;54262;44.642;-0.974;2023-05-29T05:02:44;15.10;99.90
67379;DHT22;54262;44.642;-0.974;2023-05-29T05:05:11;15.20;99.90
67379;DHT22;54262;44.642;-0.974;2023-05-29T05:07:37;15.20;99.90
67379;DHT22;54262;44.642;-0.974;2023-05-29T05:10:04;15.30;99.90
67379;DHT22;54262;44.642;-0.974;2023-05-29T05:12:29;15.40;99.90
67379;DHT22;54262;44.642;-0.974;2023-05-29T05:14:55;15.40;99.90
67379;DHT22;54262;44.642;-0.974;2023-05-29T05:17:21;15.50;99.90
67379;DHT22;54262;44.642;-0.974;2023-05-29T05:19:47;15.60;99.90
67379;DHT22;54262;44.642;-0.974;2023-05-29T05:22:14;15.60;99.90
67379;DHT22;54262;44.642;-0.974;2023-05-29T05:24:40;15.70;99.90
67379;DHT22;54262;44.642;-0.974;2023-05-29T05:27:06;15.80;99.90
67379;DHT22;54262;44.642;-0.974;2023-05-29T05:29:32;16.00;99.90
67379;DHT22;54262;44.642;-0.974;2023-05-29T05:31:58;16.00;99.90
67379;DHT22;54262;44.642;-0.974;2023-05-29T05:34:23;16.10;99.90
67379;DHT22;54262;44.642;-0.974;2023-05-29T05:36:51;16.20;99.90
67379;DHT22;54262;44.642;-0.974;2023-05-29T05:39:17;16.10;99.90
67379;DHT22;54262;44.642;-0.974;2023-05-29T05:41:43;16.10;99.90
67379;DHT22;54262;44.642;-0.974;2023-05-29T05:44:08;16.20;99.90
67379;DHT22;54262;44.642;-0.974;2023-05-29T05:46:36;16.60;99.90
67379;DHT22;54262;44.642;-0.974;2023-05-29T05:49:02;16.70;99.90
67379;DHT22;54262;44.642;-0.974;2023-05-29T05:51:28;16.60;99.90
67379;DHT22;54262;44.642;-0.974;2023-05-29T05:53:54;16.70;99.90
67379;DHT22;54262;44.642;-0.974;2023-05-29T05:56:19;16.60;99.90
67379;DHT22;54262;44.642;-0.974;2023-05-29T05:58:45;16.80;99.90
67379;DHT22;54262;44.642;-0.974;2023-05-29T06:01:11;16.80;99.90
67379;DHT22;54262;44.642;-0.974;2023-05-29T06:03:36;16.90;99.90
67379;DHT22;54262;44.642;-0.974;2023-05-29T06:06:03;17.10;99.90
67379;DHT22;54262;44.642;-0.974;2023-05-29T06:08:29;17.60;99.90
67379;DHT22;54262;44.642;-0.974;2023-05-29T06:10:56;18.50;99.90
67379;DHT22;54262;44.642;-0.974;2023-05-29T06:13:21;19.40;99.90
67379;DHT22;54262;44.642;-0.974;2023-05-29T06:15:47;20.00;99.90
67379;DHT22;54262;44.642;-0.974;2023-05-29T06:18:13;20.80;99.90
67379;DHT22;54262;44.642;-0.974;2023-05-29T06:20:38;21.30;99.90
67379;DHT22;54262;44.642;-0.974;2023-05-29T06:23:04;21.80;99.90
67379;DHT22;54262;44.642;-0.974;2023-05-29T06:25:30;21.70;99.90
67379;DHT22;54262;44.642;-0.974;2023-05-29T06:28:02;22.30;99.90
67379;DHT22;54262;44.642;-0.974;2023-05-29T06:30:28;22.50;99.90
67379;DHT22;54262;44.642;-0.974;2023-05-29T06:32:54;22.30;99.90
67379;DHT22;54262;44.642;-0.974;2023-05-29T06:35:20;22.20;99.90
67379;DHT22;54262;44.642;-0.974;2023-05-29T06:37:48;22.90;99.90
67379;DHT22;54262;44.642;-0.974;2023-05-29T06:40:14;23.10;99.90
67379;DHT22;54262;44.642;-0.974;2023-05-29T06:42:41;23.10;99.90
67379;DHT22;54262;44.642;-0.974;2023-05-29T06:45:10;23.70;99.90
67379;DHT22;54262;44.642;-0.974;2023-05-29T06:47:39;24.10;99.90
67379;DHT22;54262;44.642;-0.974;2023-05-29T06:50:06;24.50;99.60
67379;DHT22;54262;44.642;-0.974;2023-05-29T06:52:31;24.20;95.50
67379;DHT22;54262;44.642;-0.974;2023-05-29T06:54:57;24.40;97.80
67379;DHT22;54262;44.642;-0.974;2023-05-29T06:57:23;24.10;99.90
67379;DHT22;54262;44.642;-0.974;2023-05-29T06:59:48;23.60;99.90
67379;DHT22;54262;44.642;-0.974;2023-05-29T07:02:14;24.80;99.40
67379;DHT22;54262;44.642;-0.974;2023-05-29T07:04:39;24.70;93.60
67379;DHT22;54262;44.642;-0.974;2023-05-29T07:07:05;24.70;98.80
67379;DHT22;54262;44.642;-0.974;2023-05-29T07:09:31;25.80;92.80
67379;DHT22;54262;44.642;-0.974;2023-05-29T07:11:56;25.70;85.70
67379;DHT22;54262;44.642;-0.974;2023-05-29T07:14:22;24.90;89.40
67379;DHT22;54262;44.642;-0.974;2023-05-29T07:16:47;24.90;88.90
67379;DHT22;54262;44.642;-0.974;2023-05-29T07:19:13;24.80;98.40
67379;DHT22;54262;44.642;-0.974;2023-05-29T07:21:39;25.70;91.10
67379;DHT22;54262;44.642;-0.974;2023-05-29T07:24:05;25.30;86.50
67379;DHT22;54262;44.642;-0.974;2023-05-29T07:26:31;25.10;88.70
67379;DHT22;54262;44.642;-0.974;2023-05-29T07:28:57;25.80;91.80
67379;DHT22;54262;44.642;-0.974;2023-05-29T07:31:23;26.30;80.10
67379;DHT22;54262;44.642;-0.974;2023-05-29T07:33:48;26.20;87.40
67379;DHT22;54262;44.642;-0.974;2023-05-29T07:36:17;25.60;82.00
67379;DHT22;54262;44.642;-0.974;2023-05-29T07:38:46;25.20;91.60
67379;DHT22;54262;44.642;-0.974;2023-05-29T07:41:11;25.00;88.60
67379;DHT22;54262;44.642;-0.974;2023-05-29T07:43:37;24.50;92.20
67379;DHT22;54262;44.642;-0.974;2023-05-29T07:46:03;24.60;97.30
67379;DHT22;54262;44.642;-0.974;2023-05-29T07:48:31;24.50;95.20
67379;DHT22;54262;44.642;-0.974;2023-05-29T07:50:56;24.40;93.80
67379;DHT22;54262;44.642;-0.974;2023-05-29T07:53:22;23.90;99.90
67379;DHT22;54262;44.642;-0.974;2023-05-29T07:55:48;25.00;93.30
67379;DHT22;54262;44.642;-0.974;2023-05-29T07:58:13;24.40;93.20
67379;DHT22;54262;44.642;-0.974;2023-05-29T08:00:43;23.90;97.50
67379;DHT22;54262;44.642;-0.974;2023-05-29T08:03:09;23.70;99.90
67379;DHT22;54262;44.642;-0.974;2023-05-29T08:05:35;24.20;98.00
67379;DHT22;54262;44.642;-0.974;2023-05-29T08:08:00;25.40;95.80
67379;DHT22;54262;44.642;-0.974;2023-05-29T08:10:26;25.10;91.00
67379;DHT22;54262;44.642;-0.974;2023-05-29T08:12:52;24.20;96.20
67379;DHT22;54262;44.642;-0.974;2023-05-29T08:15:18;24.00;99.90
67379;DHT22;54262;44.642;-0.974;2023-05-29T08:17:44;25.10;96.90
67379;DHT22;54262;44.642;-0.974;2023-05-29T08:20:10;25.00;95.80
67379;DHT22;54262;44.642;-0.974;2023-05-29T08:22:36;25.50;94.80
67379;DHT22;54262;44.642;-0.974;2023-05-29T08:25:01;25.10;91.80
67379;DHT22;54262;44.642;-0.974;2023-05-29T08:27:27;24.00;98.80
67379;DHT22;54262;44.642;-0.974;2023-05-29T08:29:53;23.80;99.90
67379;DHT22;54262;44.642;-0.974;2023-05-29T08:32:20;23.80;99.90
67379;DHT22;54262;44.642;-0.974;2023-05-29T08:34:46;24.80;98.10
67379;DHT22;54262;44.642;-0.974;2023-05-29T08:37:12;25.10;94.30
67379;DHT22;54262;44.642;-0.974;2023-05-29T08:39:40;24.80;97.40
67379;DHT22;54262;44.642;-0.974;2023-05-29T08:42:29;24.60;97.20
67379;DHT22;54262;44.642;-0.974;2023-05-29T08:45:02;24.50;99.90
67379;DHT22;54262;44.642;-0.974;2023-05-29T08:47:32;24.10;99.60
67379;DHT22;54262;44.642;-0.974;2023-05-29T08:50:01;24.20;99.90
67379;DHT22;54262;44.642;-0.974;2023-05-29T08:52:30;23.90;99.90
67379;DHT22;54262;44.642;-0.974;2023-05-29T08:54:58;24.20;99.90
67379;DHT22;54262;44.642;-0.974;2023-05-29T08:57:30;24.40;99.90
67379;DHT22;54262;44.642;-0.974;2023-05-29T08:59:57;24.40;99.90
67379;DHT22;54262;44.642;-0.974;2023-05-29T09:02:23;24.40;99.90
67379;DHT22;54262;44.642;-0.974;2023-05-29T09:04:48;24.30;99.90
67379;DHT22;54262;44.642;-0.974;2023-05-29T09:07:15;24.20;99.90
67379;DHT22;54262;44.642;-0.974;2023-05-29T09:09:41;24.10;99.90
67379;DHT22;54262;44.642;-0.974;2023-05-29T09:12:08;24.00;99.90
67379;DHT22;54262;44.642;-0.974;2023-05-29T09:14:39;24.00;99.90
67379;DHT22;54262;44.642;-0.974;2023-05-29T09:17:07;24.10;99.90
67379;DHT22;54262;44.642;-0.974;2023-05-29T09:19:34;23.80;99.90
67379;DHT22;54262;44.642;-0.974;2023-05-29T09:22:05;23.70;99.90
67379;DHT22;54262;44.642;-0.974;2023-05-29T09:24:34;23.80;99.90
67379;DHT22;54262;44.642;-0.974;2023-05-29T09:27:02;23.80;99.90
67379;DHT22;54262;44.642;-0.974;2023-05-29T09:29:33;24.10;99.90
67379;DHT22;54262;44.642;-0.974;2023-05-29T09:31:59;24.20;99.90
67379;DHT22;54262;44.642;-0.974;2023-05-29T09:34:26;24.30;99.90
67379;DHT22;54262;44.642;-0.974;2023-05-29T09:36:53;24.30;99.90
67379;DHT22;54262;44.642;-0.974;2023-05-29T09:39:19;24.60;99.90
67379;DHT22;54262;44.642;-0.974;2023-05-29T09:41:47;24.70;99.90
67379;DHT22;54262;44.642;-0.974;2023-05-29T09:44:16;24.30;99.90
67379;DHT22;54262;44.642;-0.974;2023-05-29T09:46:42;24.40;99.90
67379;DHT22;54262;44.642;-0.974;2023-05-29T09:49:14;24.60;99.90
67379;DHT22;54262;44.642;-0.974;2023-05-29T09:51:42;24.50;99.90
67379;DHT22;54262;44.642;-0.974;2023-05-29T09:54:17;24.60;99.90
67379;DHT22;54262;44.642;-0.974;2023-05-29T09:56:43;24.90;99.90
67379;DHT22;54262;44.642;-0.974;2023-05-29T09:59:13;24.80;99.90
67379;DHT22;54262;44.642;-0.974;2023-05-29T10:01:42;24.90;99.90
67379;DHT22;54262;44.642;-0.974;2023-05-29T10:04:11;24.80;99.00
67379;DHT22;54262;44.642;-0.974;2023-05-29T10:06:40;25.00;99.90
67379;DHT22;54262;44.642;-0.974;2023-05-29T10:09:09;24.90;99.90
67379;DHT22;54262;44.642;-0.974;2023-05-29T10:11:38;25.00;96.20
67379;DHT22;54262;44.642;-0.974;2023-05-29T10:14:06;25.40;96.90
67379;DHT22;54262;44.642;-0.974;2023-05-29T10:16:34;25.40;93.90
67379;DHT22;54262;44.642;-0.974;2023-05-29T10:19:05;25.40;97.50
67379;DHT22;54262;44.642;-0.974;2023-05-29T10:21:35;25.00;99.70
67379;DHT22;54262;44.642;-0.974;2023-05-29T10:24:05;25.00;99.90
67379;DHT22;54262;44.642;-0.974;2023-05-29T10:26:35;25.00;99.90
67379;DHT22;54262;44.642;-0.974;2023-05-29T10:29:28;25.00;99.90
67379;DHT22;54262;44.642;-0.974;2023-05-29T10:32:21;25.20;99.90
67379;DHT22;54262;44.642;-0.974;2023-05-29T10:34:59;25.20;99.50
67379;DHT22;54262;44.642;-0.974;2023-05-29T10:37:42;25.10;99.90
67379;DHT22;54262;44.642;-0.974;2023-05-29T10:40:11;25.20;99.80
67379;DHT22;54262;44.642;-0.974;2023-05-29T10:42:52;25.20;99.90
67379;DHT22;54262;44.642;-0.974;2023-05-29T10:50:36;25.20;99.90
67379;DHT22;54262;44.642;-0.974;2023-05-29T10:53:15;25.20;99.90
67379;DHT22;54262;44.642;-0.974;2023-05-29T10:55:43;25.20;99.90
67379;DHT22;54262;44.642;-0.974;2023-05-29T10:58:17;25.20;99.90
67379;DHT22;54262;44.642;-0.974;2023-05-29T11:00:45;25.20;99.90
67379;DHT22;54262;44.642;-0.974;2023-05-29T11:03:53;25.30;99.90
67379;DHT22;54262;44.642;-0.974;2023-05-29T11:06:20;25.60;99.90
67379;DHT22;54262;44.642;-0.974;2023-05-29T11:08:48;25.40;99.90
67379;DHT22;54262;44.642;-0.974;2023-05-29T11:13:54;25.30;99.90
67379;DHT22;54262;44.642;-0.974;2023-05-29T11:18:55;25.20;99.90
67379;DHT22;54262;44.642;-0.974;2023-05-29T11:23:53;25.50;99.90
67379;DHT22;54262;44.642;-0.974;2023-05-29T11:26:21;25.30;99.90
67379;DHT22;54262;44.642;-0.974;2023-05-29T11:28:48;25.00;99.90
67379;DHT22;54262;44.642;-0.974;2023-05-29T11:31:15;25.30;99.90
67379;DHT22;54262;44.642;-0.974;2023-05-29T11:33:48;25.30;99.90
67379;DHT22;54262;44.642;-0.974;2023-05-29T11:36:21;25.10;99.90
67379;DHT22;54262;44.642;-0.974;2023-05-29T11:38:47;24.90;99.90
67379;DHT22;54262;44.642;-0.974;2023-05-29T11:41:13;25.20;99.90
67379;DHT22;54262;44.642;-0.974;2023-05-29T11:43:56;25.30;99.90
67379;DHT22;54262;44.642;-0.974;2023-05-29T11:46:21;25.00;99.90
67379;DHT22;54262;44.642;-0.974;2023-05-29T11:48:47;25.40;99.90
67379;DHT22;54262;44.642;-0.974;2023-05-29T11:51:14;25.40;99.90
67379;DHT22;54262;44.642;-0.974;2023-05-29T11:53:46;25.30;99.90
67379;DHT22;54262;44.642;-0.974;2023-05-29T11:56:12;25.40;99.90
67379;DHT22;54262;44.642;-0.974;2023-05-29T11:58:41;25.40;99.90
67379;DHT22;54262;44.642;-0.974;2023-05-29T12:01:08;25.20;99.90
67379;DHT22;54262;44.642;-0.974;2023-05-29T12:03:41;25.50;99.90
67379;DHT22;54262;44.642;-0.974;2023-05-29T12:06:08;25.70;99.90
67379;DHT22;54262;44.642;-0.974;2023-05-29T12:08:36;25.60;99.90
67379;DHT22;54262;44.642;-0.974;2023-05-29T12:11:02;24.70;99.90
67379;DHT22;54262;44.642;-0.974;2023-05-29T12:13:28;24.70;99.90
67379;DHT22;54262;44.642;-0.974;2023-05-29T12:15:57;25.30;99.90
67379;DHT22;54262;44.642;-0.974;2023-05-29T12:18:28;25.70;99.90
67379;DHT22;54262;44.642;-0.974;2023-05-29T12:20:59;25.40;99.90
67379;DHT22;54262;44.642;-0.974;2023-05-29T12:23:26;25.50;99.90
67379;DHT22;54262;44.642;-0.974;2023-05-29T12:25:52;25.60;99.90
67379;DHT22;54262;44.642;-0.974;2023-05-29T12:28:18;25.30;99.90
67379;DHT22;54262;44.642;-0.974;2023-05-29T12:30:46;25.60;99.90
67379;DHT22;54262;44.642;-0.974;2023-05-29T12:33:28;25.60;99.90
67379;DHT22;54262;44.642;-0.974;2023-05-29T12:35:54;25.90;99.90
67379;DHT22;54262;44.642;-0.974;2023-05-29T12:38:22;25.60;99.90
67379;DHT22;54262;44.642;-0.974;2023-05-29T12:40:48;25.50;99.90
67379;DHT22;54262;44.642;-0.974;2023-05-29T12:43:16;25.80;99.90
67379;DHT22;54262;44.642;-0.974;2023-05-29T12:45:44;25.50;99.90
67379;DHT22;54262;44.642;-0.974;2023-05-29T12:48:09;26.00;99.90
67379;DHT22;54262;44.642;-0.974;2023-05-29T12:50:38;26.00;99.90
67379;DHT22;54262;44.642;-0.974;2023-05-29T12:55:35;25.60;99.90
67379;DHT22;54262;44.642;-0.974;2023-05-29T12:58:05;25.90;99.90
67379;DHT22;54262;44.642;-0.974;2023-05-29T13:00:36;25.90;99.90
67379;DHT22;54262;44.642;-0.974;2023-05-29T13:03:02;26.10;99.60
67379;DHT22;54262;44.642;-0.974;2023-05-29T13:05:28;26.20;98.70
67379;DHT22;54262;44.642;-0.974;2023-05-29T13:07:54;26.20;98.90
67379;DHT22;54262;44.642;-0.974;2023-05-29T13:10:20;26.40;97.70
67379;DHT22;54262;44.642;-0.974;2023-05-29T13:12:48;25.90;99.90
67379;DHT22;54262;44.642;-0.974;2023-05-29T13:15:15;25.70;99.90
67379;DHT22;54262;44.642;-0.974;2023-05-29T13:17:41;25.70;99.90
67379;DHT22;54262;44.642;-0.974;2023-05-29T13:20:11;25.90;99.90
67379;DHT22;54262;44.642;-0.974;2023-05-29T13:22:41;26.00;99.90
67379;DHT22;54262;44.642;-0.974;2023-05-29T13:25:09;26.10;98.30
67379;DHT22;54262;44.642;-0.974;2023-05-29T13:27:37;25.80;99.90
67379;DHT22;54262;44.642;-0.974;2023-05-29T13:30:04;25.90;99.90
67379;DHT22;54262;44.642;-0.974;2023-05-29T13:32:30;25.80;99.90
67379;DHT22;54262;44.642;-0.974;2023-05-29T13:34:56;25.70;99.90
67379;DHT22;54262;44.642;-0.974;2023-05-29T13:37:22;26.30;99.10
67379;DHT22;54262;44.642;-0.974;2023-05-29T13:39:48;26.30;99.00
67379;DHT22;54262;44.642;-0.974;2023-05-29T13:42:14;26.30;99.10
67379;DHT22;54262;44.642;-0.974;2023-05-29T13:44:39;26.00;99.90
67379;DHT22;54262;44.642;-0.974;2023-05-29T13:47:07;25.50;99.90
67379;DHT22;54262;44.642;-0.974;2023-05-29T13:49:36;25.60;99.90
67379;DHT22;54262;44.642;-0.974;2023-05-29T13:52:03;26.10;99.90
67379;DHT22;54262;44.642;-0.974;2023-05-29T13:54:28;26.40;98.60
67379;DHT22;54262;44.642;-0.974;2023-05-29T13:56:57;26.40;99.20
67379;DHT22;54262;44.642;-0.974;2023-05-29T13:59:24;26.60;97.50
67379;DHT22;54262;44.642;-0.974;2023-05-29T14:01:49;26.40;98.70
67379;DHT22;54262;44.642;-0.974;2023-05-29T14:04:15;26.70;96.60
67379;DHT22;54262;44.642;-0.974;2023-05-29T14:06:41;26.90;95.60
67379;DHT22;54262;44.642;-0.974;2023-05-29T14:09:06;27.00;95.00
67379;DHT22;54262;44.642;-0.974;2023-05-29T14:11:35;26.90;95.30
67379;DHT22;54262;44.642;-0.974;2023-05-29T14:14:03;26.90;95.40
67379;DHT22;54262;44.642;-0.974;2023-05-29T14:16:29;27.00;94.90
67379;DHT22;54262;44.642;-0.974;2023-05-29T14:18:55;27.10;94.70
67379;DHT22;54262;44.642;-0.974;2023-05-29T14:21:20;27.10;94.40
67379;DHT22;54262;44.642;-0.974;2023-05-29T14:23:46;27.10;94.80
67379;DHT22;54262;44.642;-0.974;2023-05-29T14:26:12;27.10;94.70
67379;DHT22;54262;44.642;-0.974;2023-05-29T14:28:38;27.20;94.20
67379;DHT22;54262;44.642;-0.974;2023-05-29T14:31:06;27.10;95.10
67379;DHT22;54262;44.642;-0.974;2023-05-29T14:33:32;27.30;94.00
67379;DHT22;54262;44.642;-0.974;2023-05-29T14:35:58;27.00;96.10
67379;DHT22;54262;44.642;-0.974;2023-05-29T14:38:24;27.20;94.50
67379;DHT22;54262;44.642;-0.974;2023-05-29T14:40:51;27.10;94.50
67379;DHT22;54262;44.642;-0.974;2023-05-29T14:43:16;27.30;93.80
67379;DHT22;54262;44.642;-0.974;2023-05-29T14:45:42;27.00;95.20
67379;DHT22;54262;44.642;-0.974;2023-05-29T14:48:10;27.20;91.70
67379;DHT22;54262;44.642;-0.974;2023-05-29T14:50:36;26.20;98.90
67379;DHT22;54262;44.642;-0.974;2023-05-29T14:53:02;26.50;98.80
67379;DHT22;54262;44.642;-0.974;2023-05-29T14:55:28;27.10;95.20
67379;DHT22;54262;44.642;-0.974;2023-05-29T14:57:56;27.30;93.60
67379;DHT22;54262;44.642;-0.974;2023-05-29T15:00:21;26.90;95.10
67379;DHT22;54262;44.642;-0.974;2023-05-29T15:02:47;27.10;94.50
67379;DHT22;54262;44.642;-0.974;2023-05-29T15:05:13;27.00;95.30
67379;DHT22;54262;44.642;-0.974;2023-05-29T15:07:38;27.10;94.90
67379;DHT22;54262;44.642;-0.974;2023-05-29T15:10:04;27.10;93.20
67379;DHT22;54262;44.642;-0.974;2023-05-29T15:12:31;27.30;92.20
67379;DHT22;54262;44.642;-0.974;2023-05-29T15:14:57;27.00;94.10
67379;DHT22;54262;44.642;-0.974;2023-05-29T15:17:23;27.00;91.90
67379;DHT22;54262;44.642;-0.974;2023-05-29T15:19:48;27.20;94.00
67379;DHT22;54262;44.642;-0.974;2023-05-29T15:22:14;27.40;91.10
67379;DHT22;54262;44.642;-0.974;2023-05-29T15:24:40;27.50;91.40
67379;DHT22;54262;44.642;-0.974;2023-05-29T15:27:06;27.50;91.00
67379;DHT22;54262;44.642;-0.974;2023-05-29T15:29:35;27.60;91.10
67379;DHT22;54262;44.642;-0.974;2023-05-29T15:32:01;27.50;91.80
67379;DHT22;54262;44.642;-0.974;2023-05-29T15:34:27;27.60;91.10
67379;DHT22;54262;44.642;-0.974;2023-05-29T15:36:53;27.70;90.50
67379;DHT22;54262;44.642;-0.974;2023-05-29T15:39:18;27.50;91.40
67379;DHT22;54262;44.642;-0.974;2023-05-29T15:41:44;27.70;90.70